Time;durP1;ratioP1;P1;durP2;ratioP2;P2;SDS_P1;SDS_P2;PMS_P1;PMS_P2;Temp;Humidity;BMP_temperature;BMP_pressure;BME280_temperature;BME280_humidity;BME280_pressure;Samples;Min_cycle;Max_cycle;Signal;HPM_P1;HPM_P2
2022/12/07 00:00:55;;;;;;;;;;;;;;;;;;6356895;22;19921;-96
2022/12/07 00:03:21;;;;;;;;;;;;;;;;;;6351907;22;20340;-96
2022/12/07 00:05:47;;;;;;;;;;;;;;;;;;6351445;22;19928;-96
2022/12/07 00:08:13;;;;;;;;;;;;;;;;;;6350618;22;20362;-96
2022/12/07 00:10:39;;;;;;;;;;;;;;;;;;6350632;22;19946;-96
2022/12/07 00:13:05;;;;;;;;;;;;;;;;;;6355058;22;19921;-96
2022/12/07 00:15:31;;;;;;;;;;;;;;;;;;6357716;22;19918;-96
2022/12/07 00:17:59;;;;;;;;;;;;;;;;;;6361085;22;19971;-96
2022/12/07 00:20:33;;;;;;;;;;;;;;;;;;6383876;22;19925;-96
2022/12/07 00:22:59;;;;;;;;;;;;;;;;;;6351748;22;19921;-96
2022/12/07 00:25:25;;;;;;;;;;;;;;;;;;6349795;22;20332;-96
2022/12/07 00:27:50;;;;;;;;;;;;;;;;;;6349550;22;19914;-96
2022/12/07 00:30:16;;;;;;;;;;;;;;;;;;6350435;22;19918;-96
2022/12/07 00:32:42;;;;;;;;;;;;;;;;;;6357525;22;19914;-96
2022/12/07 00:35:08;;;;;;;;;;;;;;;;;;6355258;22;19954;-96
2022/12/07 00:37:34;;;;;;;;;;;;;;;;;;6353707;22;19922;-96
2022/12/07 00:40:01;;;;;;;;;;;;;;;;;;6354481;22;19915;-96
2022/12/07 00:42:27;;;;;;;;;;;;;;;;;;6354739;22;19915;-96
2022/12/07 00:44:53;;;;;;;;;;;;;;;;;;6353239;22;19921;-96
2022/12/07 00:47:19;;;;;;;;;;;;;;;;;;6351928;22;19914;-96
2022/12/07 00:49:45;;;;;;;;;;;;;;;;;;6352309;22;20390;-96
2022/12/07 00:52:11;;;;;;;;;;;;;;;;;;6353147;22;19953;-96
2022/12/07 00:54:37;;;;;;;;;;;;;;;;;;6352509;22;19914;-96
2022/12/07 00:57:03;;;;;;;;;;;;;;;;;;6352177;22;19914;-96
2022/12/07 00:59:29;;;;;;;;;;;;;;;;;;6350299;22;19915;-96
2022/12/07 01:01:55;;;;;;;;;;;;;;;;;;6349150;22;20013;-96
2022/12/07 01:04:21;;;;;;;;;;;;;;;;;;6348955;22;19946;-96
2022/12/07 01:06:47;;;;;;;;;;;;;;;;;;6350801;22;19953;-96
2022/12/07 01:09:13;;;;;;;;;;;;;;;;;;6351459;22;19921;-96
2022/12/07 01:11:39;;;;;;;;;;;;;;;;;;6347899;22;19993;-96
2022/12/07 01:14:05;;;;;;;;;;;;;;;;;;6348552;22;19916;-95
2022/12/07 01:16:31;;;;;;;;;;;;;;;;;;6351922;22;19921;-96
2022/12/07 01:18:57;;;;;;;;;;;;;;;;;;6351120;22;19915;-96
2022/12/07 01:21:23;;;;;;;;;;;;;;;;;;6352303;22;19914;-94
2022/12/07 01:23:52;;;;;;;;;;;;;;;;;;6353719;22;20340;-96
2022/12/07 01:26:18;;;;;;;;;;;;;;;;;;6350671;22;19915;-96
2022/12/07 01:28:44;;;;;;;;;;;;;;;;;;6348396;22;19918;-96
2022/12/07 01:31:11;;;;;;;;;;;;;;;;;;6345766;22;20006;-96
2022/12/07 01:33:37;;;;;;;;;;;;;;;;;;6345779;22;19958;-96
2022/12/07 01:36:03;;;;;;;;;;;;;;;;;;6346005;22;19981;-96
2022/12/07 01:38:29;;;;;;;;;;;;;;;;;;6346208;22;19918;-94
2022/12/07 01:40:55;;;;;;;;;;;;;;;;;;6346332;22;19914;-96
2022/12/07 01:43:21;;;;;;;;;;;;;;;;;;6346973;22;20354;-96
2022/12/07 01:45:47;;;;;;;;;;;;;;;;;;6348021;22;19950;-96
2022/12/07 01:48:13;;;;;;;;;;;;;;;;;;6346721;22;19914;-96
2022/12/07 01:50:39;;;;;;;;;;;;;;;;;;6344579;22;19918;-96
2022/12/07 01:53:04;;;;;;;;;;;;;;;;;;6345561;22;19915;-96
2022/12/07 01:55:30;;;;;;;;;;;;;;;;;;6344492;22;20366;-96
2022/12/07 01:57:56;;;;;;;;;;;;;;;;;;6344524;22;20293;-96
2022/12/07 02:00:22;;;;;;;;;;;;;;;;;;6345335;22;19918;-96
2022/12/07 02:02:48;;;;;;;;;;;;;;;;;;6347013;22;19939;-96
2022/12/07 02:05:14;;;;;;;;;;;;;;;;;;6346736;22;19914;-96
2022/12/07 02:07:40;;;;;;;;;;;;;;;;;;6346259;22;19915;-96
2022/12/07 02:10:06;;;;;;;;;;;;;;;;;;6344207;22;20247;-95
2022/12/07 02:12:32;;;;;;;;;;;;;;;;;;6345447;22;19997;-96
2022/12/07 02:14:58;;;;;;;;;;;;;;;;;;6344925;22;19948;-96
2022/12/07 02:17:24;;;;;;;;;;;;;;;;;;6344860;22;19921;-96
2022/12/07 02:19:50;;;;;;;;;;;;;;;;;;6344906;22;19915;-96
2022/12/07 02:22:16;;;;;;;;;;;;;;;;;;6346462;22;19915;-96
2022/12/07 02:24:42;;;;;;;;;;;;;;;;;;6347181;22;19918;-96
2022/12/07 02:27:08;;;;;;;;;;;;;;;;;;6348049;22;20239;-96
2022/12/07 02:29:34;;;;;;;;;;;;;;;;;;6348011;22;19953;-96
2022/12/07 02:32:00;;;;;;;;;;;;;;;;;;6346649;22;19915;-96
2022/12/07 02:34:26;;;;;;;;;;;;;;;;;;6345247;22;19995;-96
2022/12/07 02:36:51;;;;;;;;;;;;;;;;;;6344975;22;19963;-96
2022/12/07 02:39:17;;;;;;;;;;;;;;;;;;6344565;22;19914;-96
2022/12/07 02:41:43;;;;;;;;;;;;;;;;;;6344922;22;19997;-96
2022/12/07 02:44:09;;;;;;;;;;;;;;;;;;6345467;22;19914;-96
2022/12/07 02:46:35;;;;;;;;;;;;;;;;;;6345683;22;19921;-96
2022/12/07 02:49:01;;;;;;;;;;;;;;;;;;6344370;22;19940;-96
2022/12/07 02:51:27;;;;;;;;;;;;;;;;;;6344812;22;19918;-96
2022/12/07 02:53:53;;;;;;;;;;;;;;;;;;6344849;22;19964;-94
2022/12/07 02:56:19;;;;;;;;;;;;;;;;;;6344687;22;19914;-96
2022/12/07 02:58:45;;;;;;;;;;;;;;;;;;6343788;22;19914;-92
2022/12/07 03:01:11;;;;;;;;;;;;;;;;;;6343608;22;20319;-96
2022/12/07 03:03:37;;;;;;;;;;;;;;;;;;6343607;22;19967;-96
2022/12/07 03:06:03;;;;;;;;;;;;;;;;;;6343749;22;19918;-96
2022/12/07 03:08:29;;;;;;;;;;;;;;;;;;6343787;22;19914;-96
2022/12/07 03:10:55;;;;;;;;;;;;;;;;;;6343231;22;19918;-95
2022/12/07 03:13:21;;;;;;;;;;;;;;;;;;6343710;22;19914;-96
2022/12/07 03:15:47;;;;;;;;;;;;;;;;;;6343610;22;19945;-96
2022/12/07 03:18:13;;;;;;;;;;;;;;;;;;6343697;22;19922;-96
2022/12/07 03:20:38;;;;;;;;;;;;;;;;;;6343241;22;19963;-96
2022/12/07 03:23:04;;;;;;;;;;;;;;;;;;6343561;22;19950;-96
2022/12/07 03:25:30;;;;;;;;;;;;;;;;;;6343607;22;19921;-96
2022/12/07 03:27:56;;;;;;;;;;;;;;;;;;6343461;22;19982;-96
2022/12/07 03:30:22;;;;;;;;;;;;;;;;;;6369398;22;19948;-95
2022/12/07 03:32:48;;;;;;;;;;;;;;;;;;6369923;22;19918;-95
2022/12/07 03:35:16;;;;;;;;;;;;;;;;;;6343612;22;19915;-95
2022/12/07 03:37:42;;;;;;;;;;;;;;;;;;6344712;22;19943;-96
2022/12/07 03:40:08;;;;;;;;;;;;;;;;;;6344860;22;19964;-96
2022/12/07 03:42:34;;;;;;;;;;;;;;;;;;6345362;22;19946;-95
2022/12/07 03:45:00;;;;;;;;;;;;;;;;;;6345615;22;19941;-95
2022/12/07 03:47:26;;;;;;;;;;;;;;;;;;6345705;22;20436;-96
2022/12/07 03:49:52;;;;;;;;;;;;;;;;;;6344766;22;19994;-96
2022/12/07 03:52:18;;;;;;;;;;;;;;;;;;6345319;22;19945;-96
2022/12/07 03:54:44;;;;;;;;;;;;;;;;;;6345244;22;19918;-96
2022/12/07 03:57:09;;;;;;;;;;;;;;;;;;6345472;22;19914;-96
2022/12/07 03:59:35;;;;;;;;;;;;;;;;;;6344784;22;19921;-96
2022/12/07 04:02:01;;;;;;;;;;;;;;;;;;6345169;22;19922;-94
2022/12/07 04:04:27;;;;;;;;;;;;;;;;;;6345040;22;20331;-96
2022/12/07 04:06:53;;;;;;;;;;;;;;;;;;6345162;22;19918;-96
2022/12/07 04:09:19;;;;;;;;;;;;;;;;;;6344666;22;19926;-96
2022/12/07 04:11:45;;;;;;;;;;;;;;;;;;6344986;22;19918;-95
2022/12/07 04:14:20;;;;;;;;;;;;;;;;;;6345288;22;20332;-96
2022/12/07 04:16:46;;;;;;;;;;;;;;;;;;6345065;22;19921;-96
2022/12/07 04:19:12;;;;;;;;;;;;;;;;;;6344583;22;19918;-96
2022/12/07 04:21:38;;;;;;;;;;;;;;;;;;6344843;22;19918;-96
2022/12/07 04:24:04;;;;;;;;;;;;;;;;;;6345135;22;19921;-95
2022/12/07 04:26:30;;;;;;;;;;;;;;;;;;6345303;22;19989;-96
2022/12/07 04:28:56;;;;;;;;;;;;;;;;;;6344555;22;19948;-96
2022/12/07 04:31:22;;;;;;;;;;;;;;;;;;6344783;22;19929;-96
2022/12/07 04:33:47;;;;;;;;;;;;;;;;;;6344958;22;19914;-96
2022/12/07 04:36:13;;;;;;;;;;;;;;;;;;6344892;22;19921;-96
2022/12/07 04:38:39;;;;;;;;;;;;;;;;;;6345025;22;19914;-96
2022/12/07 04:41:05;;;;;;;;;;;;;;;;;;6344295;22;20363;-96
2022/12/07 04:43:31;;;;;;;;;;;;;;;;;;6344880;22;19921;-96
2022/12/07 04:45:57;;;;;;;;;;;;;;;;;;6344741;22;19914;-96
2022/12/07 04:48:23;;;;;;;;;;;;;;;;;;6344632;22;20339;-96
2022/12/07 04:50:49;;;;;;;;;;;;;;;;;;6344129;22;19918;-96
2022/12/07 04:53:15;;;;;;;;;;;;;;;;;;6344738;22;20286;-96
2022/12/07 04:55:41;;;;;;;;;;;;;;;;;;6344780;22;19914;-96
2022/12/07 04:58:07;;;;;;;;;;;;;;;;;;6344477;22;19915;-96
2022/12/07 05:00:33;;;;;;;;;;;;;;;;;;6344076;22;19921;-96
2022/12/07 05:02:59;;;;;;;;;;;;;;;;;;6342293;22;19922;-95
2022/12/07 05:05:25;;;;;;;;;;;;;;;;;;6343786;22;20286;-96
2022/12/07 05:07:51;;;;;;;;;;;;;;;;;;6343853;22;19914;-96
2022/12/07 05:10:16;;;;;;;;;;;;;;;;;;6343260;22;19925;-94
2022/12/07 05:12:42;;;;;;;;;;;;;;;;;;6370158;22;19929;-94
2022/12/07 05:15:08;;;;;;;;;;;;;;;;;;6343945;22;20039;-96
2022/12/07 05:17:34;;;;;;;;;;;;;;;;;;6343776;22;19914;-96
2022/12/07 05:20:00;;;;;;;;;;;;;;;;;;6342994;22;20040;-96
2022/12/07 05:22:27;;;;;;;;;;;;;;;;;;6343607;22;19915;-96
2022/12/07 05:24:53;;;;;;;;;;;;;;;;;;6343591;22;19960;-95
2022/12/07 05:27:19;;;;;;;;;;;;;;;;;;6343941;22;19914;-96
2022/12/07 05:29:45;;;;;;;;;;;;;;;;;;6342958;22;19914;-94
2022/12/07 05:32:11;;;;;;;;;;;;;;;;;;6343487;22;19913;-96
2022/12/07 05:34:37;;;;;;;;;;;;;;;;;;6343712;22;19914;-96
2022/12/07 05:37:03;;;;;;;;;;;;;;;;;;6369990;22;19914;-96
2022/12/07 05:39:29;;;;;;;;;;;;;;;;;;6342779;22;19915;-96
2022/12/07 05:42:13;;;;;;;;;;;;;;;;;;6343825;22;19921;-96
2022/12/07 05:44:41;;;;;;;;;;;;;;;;;;6343515;22;19920;-96
2022/12/07 05:47:07;;;;;;;;;;;;;;;;;;6343316;22;20390;-96
2022/12/07 05:49:33;;;;;;;;;;;;;;;;;;6342977;22;19993;-96
2022/12/07 05:51:59;;;;;;;;;;;;;;;;;;6343698;22;19924;-96
2022/12/07 05:54:25;;;;;;;;;;;;;;;;;;6343302;22;19914;-96
2022/12/07 05:56:51;;;;;;;;;;;;;;;;;;6343617;22;19937;-96
2022/12/07 05:59:23;;;;;;;;;;;;;;;;;;6342694;22;19959;-96
2022/12/07 06:01:49;;;;;;;;;;;;;;;;;;6343433;22;20328;-96
2022/12/07 06:04:15;;;;;;;;;;;;;;;;;;6343193;22;19921;-96
2022/12/07 06:06:41;;;;;;;;;;;;;;;;;;6343121;22;20393;-96
2022/12/07 06:09:07;;;;;;;;;;;;;;;;;;6342916;22;20339;-95
2022/12/07 06:14:17;;;;;;;;;;;;;;;;;;6371056;22;19921;-96
2022/12/07 06:16:43;;;;;;;;;;;;;;;;;;6344453;22;19914;-96
2022/12/07 06:19:09;;;;;;;;;;;;;;;;;;6343890;22;20351;-94
2022/12/07 06:21:35;;;;;;;;;;;;;;;;;;6342922;22;19914;-96
2022/12/07 06:24:01;;;;;;;;;;;;;;;;;;6342784;22;19985;-93
2022/12/07 06:26:27;;;;;;;;;;;;;;;;;;6342558;22;20328;-94
2022/12/07 06:28:53;;;;;;;;;;;;;;;;;;6341858;22;19924;-94
2022/12/07 06:31:19;;;;;;;;;;;;;;;;;;6342457;22;19989;-94
2022/12/07 06:33:45;;;;;;;;;;;;;;;;;;6342179;22;19967;-94
2022/12/07 06:36:11;;;;;;;;;;;;;;;;;;6343015;22;19975;-93
2022/12/07 06:38:37;;;;;;;;;;;;;;;;;;6368933;22;19945;-95
2022/12/07 06:41:03;;;;;;;;;;;;;;;;;;6342162;22;19921;-94
2022/12/07 06:43:29;;;;;;;;;;;;;;;;;;6342543;22;19959;-94
2022/12/07 06:45:55;;;;;;;;;;;;;;;;;;6342628;22;19918;-95
2022/12/07 06:48:21;;;;;;;;;;;;;;;;;;6342414;22;19922;-94
2022/12/07 06:50:47;;;;;;;;;;;;;;;;;;6341662;22;20491;-94
2022/12/07 06:53:13;;;;;;;;;;;;;;;;;;6343252;22;19914;-95
2022/12/07 06:55:38;;;;;;;;;;;;;;;;;;6342975;22;19914;-95
2022/12/07 06:58:04;;;;;;;;;;;;;;;;;;6343240;22;19956;-93
2022/12/07 07:00:30;;;;;;;;;;;;;;;;;;6341391;22;20384;-93
2022/12/07 07:02:56;;;;;;;;;;;;;;;;;;6342603;22;19962;-92
2022/12/07 07:05:22;;;;;;;;;;;;;;;;;;6368665;22;19979;-90
2022/12/07 07:07:48;;;;;;;;;;;;;;;;;;6342300;22;19940;-90
2022/12/07 07:10:14;;;;;;;;;;;;;;;;;;6341453;22;19922;-91
2022/12/07 07:12:40;;;;;;;;;;;;;;;;;;6369601;22;19915;-90
2022/12/07 07:15:06;;;;;;;;;;;;;;;;;;6343900;22;19922;-92
2022/12/07 07:17:32;;;;;;;;;;;;;;;;;;6344415;22;19918;-93
2022/12/07 07:19:58;;;;;;;;;;;;;;;;;;6343701;22;20355;-91
2022/12/07 07:22:23;;;;;;;;;;;;;;;;;;6344265;22;19918;-93
2022/12/07 07:24:49;;;;;;;;;;;;;;;;;;6344844;22;19918;-94
2022/12/07 07:27:15;;;;;;;;;;;;;;;;;;6344545;22;20335;-92
2022/12/07 07:29:41;;;;;;;;;;;;;;;;;;6343972;22;19940;-91
2022/12/07 07:32:07;;;;;;;;;;;;;;;;;;6344357;22;20212;-94
2022/12/07 07:34:33;;;;;;;;;;;;;;;;;;6344299;22;20304;-93
2022/12/07 07:37:00;;;;;;;;;;;;;;;;;;6344369;22;20396;-93
2022/12/07 07:39:26;;;;;;;;;;;;;;;;;;6343904;22;19921;-94
2022/12/07 07:41:52;;;;;;;;;;;;;;;;;;6344657;22;19918;-95
2022/12/07 07:44:18;;;;;;;;;;;;;;;;;;6344651;22;19921;-94
2022/12/07 07:46:44;;;;;;;;;;;;;;;;;;6344561;22;20561;-93
2022/12/07 07:49:10;;;;;;;;;;;;;;;;;;6344126;22;19925;-90
2022/12/07 07:51:36;;;;;;;;;;;;;;;;;;6343804;22;19929;-91
2022/12/07 07:54:02;;;;;;;;;;;;;;;;;;6344357;22;19918;-95
2022/12/07 07:56:28;;;;;;;;;;;;;;;;;;6370595;22;20252;-90
2022/12/07 07:58:54;;;;;;;;;;;;;;;;;;6343573;22;19922;-90
2022/12/07 08:01:19;;;;;;;;;;;;;;;;;;6370973;22;19922;-93
2022/12/07 08:03:45;;;;;;;;;;;;;;;;;;6344455;22;19920;-95
2022/12/07 08:06:11;;;;;;;;;;;;;;;;;;6344913;22;20311;-94
2022/12/07 08:08:37;;;;;;;;;;;;;;;;;;6344372;22;19945;-95
2022/12/07 08:11:03;;;;;;;;;;;;;;;;;;6344135;22;19969;-91
2022/12/07 08:13:29;;;;;;;;;;;;;;;;;;6344382;22;20395;-93
2022/12/07 08:15:55;;;;;;;;;;;;;;;;;;6371021;22;19914;-92
2022/12/07 08:18:21;;;;;;;;;;;;;;;;;;6345114;22;19921;-90
2022/12/07 08:20:47;;;;;;;;;;;;;;;;;;6342959;22;19946;-91
2022/12/07 08:23:13;;;;;;;;;;;;;;;;;;6369663;22;19997;-91
2022/12/07 08:25:39;;;;;;;;;;;;;;;;;;6343735;22;20252;-91
2022/12/07 08:28:05;;;;;;;;;;;;;;;;;;6344223;22;19978;-91
2022/12/07 08:30:31;;;;;;;;;;;;;;;;;;6343292;22;20391;-93
2022/12/07 08:32:56;;;;;;;;;;;;;;;;;;6345086;22;19914;-93
2022/12/07 08:35:23;;;;;;;;;;;;;;;;;;6343885;22;19918;-91
2022/12/07 08:37:49;;;;;;;;;;;;;;;;;;6343967;22;19945;-92
2022/12/07 08:40:15;;;;;;;;;;;;;;;;;;6343162;22;19963;-89
2022/12/07 08:42:41;;;;;;;;;;;;;;;;;;6343603;22;19966;-89
2022/12/07 08:47:38;;;;;;;;;;;;;;;;;;6371108;22;19914;-94
2022/12/07 08:50:04;;;;;;;;;;;;;;;;;;6343415;22;19914;-93
2022/12/07 08:52:30;;;;;;;;;;;;;;;;;;6371216;22;19925;-94
2022/12/07 08:54:56;;;;;;;;;;;;;;;;;;6344635;22;20371;-92
2022/12/07 08:57:22;;;;;;;;;;;;;;;;;;6344324;22;19918;-95
2022/12/07 08:59:48;;;;;;;;;;;;;;;;;;6348120;22;19914;-95
2022/12/07 09:02:14;;;;;;;;;;;;;;;;;;6347773;22;20451;-94
2022/12/07 09:04:40;;;;;;;;;;;;;;;;;;6345169;22;19914;-94
2022/12/07 09:07:20;;;;;;;;;;;;;;;;;;6369410;22;19914;-94
2022/12/07 09:09:46;;;;;;;;;;;;;;;;;;6343892;22;20380;-92
2022/12/07 09:12:12;;;;;;;;;;;;;;;;;;6342794;22;20005;-92
2022/12/07 09:14:40;;;;;;;;;;;;;;;;;;6346063;22;19946;-93
2022/12/07 09:17:06;;;;;;;;;;;;;;;;;;6343377;22;19968;-93
2022/12/07 09:19:31;;;;;;;;;;;;;;;;;;6342936;22;19918;-93
2022/12/07 09:21:57;;;;;;;;;;;;;;;;;;6343122;22;20328;-95
2022/12/07 09:24:23;;;;;;;;;;;;;;;;;;6342669;22;19918;-93
2022/12/07 09:26:49;;;;;;;;;;;;;;;;;;6344708;22;19914;-91
2022/12/07 09:29:15;;;;;;;;;;;;;;;;;;6341952;22;19914;-89
2022/12/07 09:31:41;;;;;;;;;;;;;;;;;;6343295;22;20282;-93
2022/12/07 09:34:07;;;;;;;;;;;;;;;;;;6342687;22;20350;-92
2022/12/07 09:36:42;;;;;;;;;;;;;;;;;;6341777;22;19915;-91
2022/12/07 09:42:12;;;;;;;;;;;;;;;;;;6381687;22;19914;-93
2022/12/07 09:47:41;;;;;;;;;;;;;;;;;;6381538;22;20285;-93
2022/12/07 09:50:07;;;;;;;;;;;;;;;;;;6342547;22;19914;-94
2022/12/07 09:52:33;;;;;;;;;;;;;;;;;;6343178;22;19914;-95
2022/12/07 09:55:03;;;;;;;;;;;;;;;;;;6343428;22;19992;-94
2022/12/07 09:57:29;;;;;;;;;;;;;;;;;;6342574;22;19997;-93
2022/12/07 09:59:55;;;;;;;;;;;;;;;;;;6341998;22;19953;-93
2022/12/07 10:02:21;;;;;;;;;;;;;;;;;;6342076;22;19915;-93
2022/12/07 10:04:47;;;;;;;;;;;;;;;;;;6341877;22;19914;-91
2022/12/07 10:07:25;;;;;;;;;;;;;;;;;;6341927;22;19914;-91
2022/12/07 10:09:51;;;;;;;;;;;;;;;;;;6340818;22;19915;-92
2022/12/07 10:12:32;;;;;;;;;;;;;;;;;;6341183;22;19914;-93
2022/12/07 10:14:57;;;;;;;;;;;;;;;;;;6341451;22;19914;-88
2022/12/07 10:17:23;;;;;;;;;;;;;;;;;;6341330;22;19922;-91
2022/12/07 10:19:49;;;;;;;;;;;;;;;;;;6341319;22;20328;-91
2022/12/07 10:22:15;;;;;;;;;;;;;;;;;;6341663;22;19914;-90
2022/12/07 10:24:46;;;;;;;;;;;;;;;;;;6341335;22;19922;-91
2022/12/07 10:27:12;;;;;;;;;;;;;;;;;;6368404;22;19918;-92
2022/12/07 10:29:38;;;;;;;;;;;;;;;;;;6341158;22;19967;-89
2022/12/07 10:32:04;;;;;;;;;;;;;;;;;;6341641;22;20277;-88
2022/12/07 10:34:30;;;;;;;;;;;;;;;;;;6367676;22;19914;-89
2022/12/07 10:36:56;;;;;;;;;;;;;;;;;;6341708;22;20332;-92
2022/12/07 10:39:22;;;;;;;;;;;;;;;;;;6367578;22;20001;-90
2022/12/07 10:41:48;;;;;;;;;;;;;;;;;;6341577;22;20247;-90
2022/12/07 10:44:13;;;;;;;;;;;;;;;;;;6342115;22;19947;-90
2022/12/07 10:46:39;;;;;;;;;;;;;;;;;;6342304;22;19915;-90
2022/12/07 10:49:05;;;;;;;;;;;;;;;;;;6341352;22;20340;-89
2022/12/07 10:51:31;;;;;;;;;;;;;;;;;;6368418;22;20513;-91
2022/12/07 10:53:58;;;;;;;;;;;;;;;;;;6341730;22;19920;-88
2022/12/07 10:56:24;;;;;;;;;;;;;;;;;;6341048;22;19989;-88
2022/12/07 10:58:49;;;;;;;;;;;;;;;;;;6341143;22;20326;-89
2022/12/07 11:04:19;;;;;;;;;;;;;;;;;;6380753;22;19955;-91
2022/12/07 11:06:45;;;;;;;;;;;;;;;;;;6342811;22;20372;-93
2022/12/07 11:09:11;;;;;;;;;;;;;;;;;;6341369;22;19950;-94
2022/12/07 11:11:39;;;;;;;;;;;;;;;;;;6342590;22;20247;-96
2022/12/07 11:14:05;;;;;;;;;;;;;;;;;;6342474;22;19918;-91
2022/12/07 11:16:31;;;;;;;;;;;;;;;;;;6342919;22;19914;-94
2022/12/07 11:19:00;;;;;;;;;;;;;;;;;;6339258;22;19926;-94
2022/12/07 11:21:25;;;;;;;;;;;;;;;;;;6342094;22;20066;-92
2022/12/07 11:23:51;;;;;;;;;;;;;;;;;;6342385;22;19946;-93
2022/12/07 11:26:20;;;;;;;;;;;;;;;;;;6342357;22;19944;-93
2022/12/07 11:28:46;;;;;;;;;;;;;;;;;;6341229;22;19915;-92
2022/12/07 11:31:13;;;;;;;;;;;;;;;;;;6366891;22;19972;-92
2022/12/07 11:33:38;;;;;;;;;;;;;;;;;;6341545;22;19921;-92
2022/12/07 11:36:04;;;;;;;;;;;;;;;;;;6341228;22;20280;-92
2022/12/07 11:38:31;;;;;;;;;;;;;;;;;;6340671;22;19945;-93
2022/12/07 11:41:12;;;;;;;;;;;;;;;;;;6340471;22;19915;-92
2022/12/07 11:43:38;;;;;;;;;;;;;;;;;;6341333;22;20035;-93
2022/12/07 11:46:04;;;;;;;;;;;;;;;;;;6340872;22;19949;-92
2022/12/07 11:48:30;;;;;;;;;;;;;;;;;;6341242;22;19937;-92
2022/12/07 11:53:25;;;;;;;;;;;;;;;;;;6367307;22;19914;-92
2022/12/07 11:55:51;;;;;;;;;;;;;;;;;;6341692;22;19921;-92
2022/12/07 11:58:17;;;;;;;;;;;;;;;;;;6342011;22;19993;-92
2022/12/07 12:00:50;;;;;;;;;;;;;;;;;;6342425;22;20343;-92
2022/12/07 12:03:16;;;;;;;;;;;;;;;;;;6342812;22;19915;-92
2022/12/07 12:05:42;;;;;;;;;;;;;;;;;;6343927;22;19928;-95
2022/12/07 12:08:08;;;;;;;;;;;;;;;;;;6342333;22;20308;-90
2022/12/07 12:10:34;;;;;;;;;;;;;;;;;;6341962;22;20001;-90
2022/12/07 12:13:00;;;;;;;;;;;;;;;;;;6343415;22;19990;-92
2022/12/07 12:15:26;;;;;;;;;;;;;;;;;;6369947;22;19936;-95
2022/12/07 12:17:57;;;;;;;;;;;;;;;;;;6342578;22;19914;-94
2022/12/07 12:20:28;;;;;;;;;;;;;;;;;;6342859;22;19926;-92
2022/12/07 12:22:54;;;;;;;;;;;;;;;;;;6340516;22;19937;-94
2022/12/07 12:27:57;;;;;;;;;;;;;;;;;;6369883;22;19950;-93
2022/12/07 12:30:23;;;;;;;;;;;;;;;;;;6344418;22;19922;-94
2022/12/07 12:32:51;;;;;;;;;;;;;;;;;;6372622;22;19914;-94
2022/12/07 12:35:17;;;;;;;;;;;;;;;;;;6343414;22;19915;-94
2022/12/07 12:37:43;;;;;;;;;;;;;;;;;;6343117;22;19971;-95
2022/12/07 12:40:08;;;;;;;;;;;;;;;;;;6342630;22;19970;-92
2022/12/07 12:42:34;;;;;;;;;;;;;;;;;;6342572;22;19914;-91
2022/12/07 12:45:03;;;;;;;;;;;;;;;;;;6342460;22;19960;-91
2022/12/07 12:47:29;;;;;;;;;;;;;;;;;;6342934;22;19921;-92
2022/12/07 12:49:55;;;;;;;;;;;;;;;;;;6342348;22;19915;-92
2022/12/07 12:52:21;;;;;;;;;;;;;;;;;;6343648;22;20339;-94
2022/12/07 12:54:47;;;;;;;;;;;;;;;;;;6343307;22;19920;-92
2022/12/07 12:57:13;;;;;;;;;;;;;;;;;;6343397;22;19914;-94
2022/12/07 12:59:39;;;;;;;;;;;;;;;;;;6342807;22;19957;-92
2022/12/07 13:02:05;;;;;;;;;;;;;;;;;;6343313;22;19921;-91
2022/12/07 13:04:31;;;;;;;;;;;;;;;;;;6342018;22;19914;-91
2022/12/07 13:06:57;;;;;;;;;;;;;;;;;;6342352;22;19914;-91
2022/12/07 13:09:33;;;;;;;;;;;;;;;;;;6368737;22;19925;-89
2022/12/07 13:11:59;;;;;;;;;;;;;;;;;;6342126;22;19926;-89
2022/12/07 13:14:24;;;;;;;;;;;;;;;;;;6342266;22;19914;-89
2022/12/07 13:16:50;;;;;;;;;;;;;;;;;;6342700;22;19914;-90
2022/12/07 13:19:20;;;;;;;;;;;;;;;;;;6367413;22;19918;-92
2022/12/07 13:21:45;;;;;;;;;;;;;;;;;;6341900;22;19922;-94
2022/12/07 13:24:11;;;;;;;;;;;;;;;;;;6341903;22;19919;-92
2022/12/07 13:26:37;;;;;;;;;;;;;;;;;;6342899;22;19925;-92
2022/12/07 13:29:03;;;;;;;;;;;;;;;;;;6342254;22;19914;-92
2022/12/07 13:31:29;;;;;;;;;;;;;;;;;;6343134;22;19922;-92
2022/12/07 13:33:55;;;;;;;;;;;;;;;;;;6368940;22;20301;-93
2022/12/07 13:36:21;;;;;;;;;;;;;;;;;;6342895;22;19921;-92
2022/12/07 13:38:47;;;;;;;;;;;;;;;;;;6342755;22;19914;-92
2022/12/07 13:41:13;;;;;;;;;;;;;;;;;;6342451;22;19918;-92
2022/12/07 13:43:39;;;;;;;;;;;;;;;;;;6342860;22;19914;-93
2022/12/07 13:46:04;;;;;;;;;;;;;;;;;;6368560;22;19921;-90
2022/12/07 13:48:32;;;;;;;;;;;;;;;;;;6342699;22;19914;-92
2022/12/07 13:50:58;;;;;;;;;;;;;;;;;;6342000;22;19958;-91
2022/12/07 13:53:24;;;;;;;;;;;;;;;;;;6342980;22;19915;-94
2022/12/07 13:55:50;;;;;;;;;;;;;;;;;;6369110;22;20252;-91
2022/12/07 13:58:20;;;;;;;;;;;;;;;;;;6342085;22;19922;-92
2022/12/07 14:00:46;;;;;;;;;;;;;;;;;;6369142;22;19993;-95
2022/12/07 14:03:12;;;;;;;;;;;;;;;;;;6343487;22;19926;-94
2022/12/07 14:05:38;;;;;;;;;;;;;;;;;;6343173;22;19920;-93
2022/12/07 14:08:03;;;;;;;;;;;;;;;;;;6343726;22;19914;-92
2022/12/07 14:10:29;;;;;;;;;;;;;;;;;;6342298;22;20005;-93
2022/12/07 14:12:55;;;;;;;;;;;;;;;;;;6342667;22;19984;-92
2022/12/07 14:15:21;;;;;;;;;;;;;;;;;;6342923;22;19945;-92
2022/12/07 14:17:51;;;;;;;;;;;;;;;;;;6342092;22;19921;-89
2022/12/07 14:20:17;;;;;;;;;;;;;;;;;;6341469;22;19914;-89
2022/12/07 14:22:43;;;;;;;;;;;;;;;;;;6341868;22;19919;-89
2022/12/07 14:25:09;;;;;;;;;;;;;;;;;;6369082;22;19981;-90
2022/12/07 14:27:36;;;;;;;;;;;;;;;;;;6342891;22;20362;-91
2022/12/07 14:30:01;;;;;;;;;;;;;;;;;;6342430;22;19950;-91
2022/12/07 14:32:28;;;;;;;;;;;;;;;;;;6342230;22;19914;-89
2022/12/07 14:34:54;;;;;;;;;;;;;;;;;;6341840;22;19914;-89
2022/12/07 14:37:20;;;;;;;;;;;;;;;;;;6368317;22;20350;-89
2022/12/07 14:39:46;;;;;;;;;;;;;;;;;;6367861;22;19922;-89
2022/12/07 14:42:12;;;;;;;;;;;;;;;;;;6368140;22;20913;-89
2022/12/07 14:44:38;;;;;;;;;;;;;;;;;;6342028;22;19983;-89
2022/12/07 14:47:04;;;;;;;;;;;;;;;;;;6341819;22;19941;-89
2022/12/07 14:49:30;;;;;;;;;;;;;;;;;;6341327;22;19946;-89
2022/12/07 14:51:56;;;;;;;;;;;;;;;;;;6368145;22;20523;-89
2022/12/07 14:54:22;;;;;;;;;;;;;;;;;;6341854;22;19921;-89
2022/12/07 14:56:49;;;;;;;;;;;;;;;;;;6342076;22;19921;-90
2022/12/07 14:59:15;;;;;;;;;;;;;;;;;;6341604;22;19914;-90
2022/12/07 15:01:41;;;;;;;;;;;;;;;;;;6341707;22;19915;-90
2022/12/07 15:04:07;;;;;;;;;;;;;;;;;;6340958;22;20316;-89
2022/12/07 15:06:36;;;;;;;;;;;;;;;;;;6341276;22;19918;-89
2022/12/07 15:09:01;;;;;;;;;;;;;;;;;;6341370;22;19918;-90
2022/12/07 15:11:27;;;;;;;;;;;;;;;;;;6340905;22;19932;-89
2022/12/07 15:22:31;;;;;;;;;;;;;;;;;;6301727;22;19952;-89
2022/12/07 15:25:04;;;;;;;;;;;;;;;;;;6340374;22;19942;-89
2022/12/07 15:27:32;;;;;;;;;;;;;;;;;;6340293;22;20374;-88
2022/12/07 15:30:08;;;;;;;;;;;;;;;;;;6339219;22;19918;-88
2022/12/07 15:35:38;;;;;;;;;;;;;;;;;;6368050;22;20599;-88
2022/12/07 15:38:10;;;;;;;;;;;;;;;;;;6343330;22;19963;-88
2022/12/07 15:40:43;;;;;;;;;;;;;;;;;;6341394;22;19922;-88
2022/12/07 15:45:03;;;;;;;;;;;;;;;;;;6368283;22;19994;-88
2022/12/07 15:52:00;;;;;;;;;;;;;;;;;;6308916;22;19944;-88
2022/12/07 15:54:26;;;;;;;;;;;;;;;;;;6341647;22;19963;-88
2022/12/07 15:56:52;;;;;;;;;;;;;;;;;;6340462;22;20399;-91
2022/12/07 15:59:19;;;;;;;;;;;;;;;;;;6366922;22;19918;-91
2022/12/07 16:01:49;;;;;;;;;;;;;;;;;;6367319;22;19914;-90
2022/12/07 16:04:15;;;;;;;;;;;;;;;;;;6342189;22;19943;-89
2022/12/07 16:09:51;;;;;;;;;;;;;;;;;;6379899;22;20570;-89
2022/12/07 16:12:17;;;;;;;;;;;;;;;;;;6343292;22;20306;-89
2022/12/07 16:14:43;;;;;;;;;;;;;;;;;;6342673;22;19945;-89
2022/12/07 16:17:09;;;;;;;;;;;;;;;;;;6342948;22;19941;-89
2022/12/07 16:19:35;;;;;;;;;;;;;;;;;;6342184;22;20314;-89
2022/12/07 16:24:50;;;;;;;;;;;;;;;;;;6367572;22;20252;-89
2022/12/07 16:27:30;;;;;;;;;;;;;;;;;;6368970;22;19915;-89
2022/12/07 16:29:56;;;;;;;;;;;;;;;;;;6342481;22;19957;-89
2022/12/07 16:32:28;;;;;;;;;;;;;;;;;;6342891;22;19919;-89
2022/12/07 16:34:54;;;;;;;;;;;;;;;;;;6342798;22;19922;-89
2022/12/07 16:37:20;;;;;;;;;;;;;;;;;;6342910;22;19914;-89
2022/12/07 16:39:46;;;;;;;;;;;;;;;;;;6342145;22;20336;-89
2022/12/07 16:42:11;;;;;;;;;;;;;;;;;;6342685;22;19914;-89
2022/12/07 16:44:38;;;;;;;;;;;;;;;;;;6342667;22;19914;-89
2022/12/07 16:47:04;;;;;;;;;;;;;;;;;;6342627;22;19914;-89
2022/12/07 16:49:30;;;;;;;;;;;;;;;;;;6368196;22;19914;-89
2022/12/07 16:51:57;;;;;;;;;;;;;;;;;;6342261;22;19918;-89
2022/12/07 16:54:23;;;;;;;;;;;;;;;;;;6343096;22;20386;-89
2022/12/07 16:56:48;;;;;;;;;;;;;;;;;;6342865;22;19950;-89
2022/12/07 16:59:14;;;;;;;;;;;;;;;;;;6343514;22;20392;-89
2022/12/07 17:01:40;;;;;;;;;;;;;;;;;;6369550;22;19959;-89
2022/12/07 17:04:07;;;;;;;;;;;;;;;;;;6342299;22;19915;-89
2022/12/07 17:06:32;;;;;;;;;;;;;;;;;;6342778;22;19953;-89
2022/12/07 17:08:58;;;;;;;;;;;;;;;;;;6341897;22;20289;-89
2022/12/07 17:11:24;;;;;;;;;;;;;;;;;;6341689;22;19922;-90
2022/12/07 17:16:35;;;;;;;;;;;;;;;;;;6369114;22;20327;-90
2022/12/07 17:19:01;;;;;;;;;;;;;;;;;;6341966;22;19925;-90
2022/12/07 17:21:27;;;;;;;;;;;;;;;;;;6342656;22;19914;-90
2022/12/07 17:23:53;;;;;;;;;;;;;;;;;;6341949;22;20335;-90
2022/12/07 17:26:25;;;;;;;;;;;;;;;;;;6340261;22;19921;-90